sensor_id;sensor_type;location;lat;lon;timestamp;pressure;altitude;pressure_sealevel;temperature;humidity
71559;BME280;59382;43.852;25.952;2023-07-28T00:01:56;101091.25;;;21.98;59.28
71559;BME280;59382;43.852;25.952;2023-07-28T00:04:22;101088.53;;;21.93;59.14
71559;BME280;59382;43.852;25.952;2023-07-28T00:06:47;101085.50;;;21.85;59.05
71559;BME280;59382;43.852;25.952;2023-07-28T00:09:12;101089.38;;;21.74;59.26
71559;BME280;59382;43.852;25.952;2023-07-28T00:11:38;101090.16;;;21.64;59.39
71559;BME280;59382;43.852;25.952;2023-07-28T00:14:04;101085.47;;;21.55;59.21
71559;BME280;59382;43.852;25.952;2023-07-28T00:16:29;101088.78;;;21.57;59.50
71559;BME280;59382;43.852;25.952;2023-07-28T00:18:55;101092.34;;;21.57;59.16
71559;BME280;59382;43.852;25.952;2023-07-28T00:21:20;101103.59;;;21.66;59.10
71559;BME280;59382;43.852;25.952;2023-07-28T00:23:46;101086.59;;;21.59;58.74
71559;BME280;59382;43.852;25.952;2023-07-28T00:26:11;101085.47;;;21.55;58.63
71559;BME280;59382;43.852;25.952;2023-07-28T00:28:37;101091.78;;;21.55;58.67
71559;BME280;59382;43.852;25.952;2023-07-28T00:31:02;101099.50;;;21.63;58.78
71559;BME280;59382;43.852;25.952;2023-07-28T00:33:28;101086.84;;;21.67;58.42
71559;BME280;59382;43.852;25.952;2023-07-28T00:35:53;101090.19;;;21.84;58.03
71559;BME280;59382;43.852;25.952;2023-07-28T00:38:19;101100.84;;;22.01;57.68
71559;BME280;59382;43.852;25.952;2023-07-28T00:40:44;101104.16;;;22.03;57.33
71559;BME280;59382;43.852;25.952;2023-07-28T00:43:13;101115.13;;;21.98;57.28
71559;BME280;59382;43.852;25.952;2023-07-28T00:45:39;101088.81;;;21.77;57.26
71559;BME280;59382;43.852;25.952;2023-07-28T00:48:08;101121.19;;;21.70;57.59
71559;BME280;59382;43.852;25.952;2023-07-28T00:50:36;101117.06;;;21.57;57.49
71559;BME280;59382;43.852;25.952;2023-07-28T00:53:02;101112.94;;;21.45;57.47
71559;BME280;59382;43.852;25.952;2023-07-28T00:55:27;101099.75;;;21.21;57.72
71559;BME280;59382;43.852;25.952;2023-07-28T00:57:53;101121.69;;;21.21;57.80
71559;BME280;59382;43.852;25.952;2023-07-28T01:00:18;101116.75;;;21.23;57.92
71559;BME280;59382;43.852;25.952;2023-07-28T01:02:44;101114.84;;;21.29;57.78
71559;BME280;59382;43.852;25.952;2023-07-28T01:05:10;101115.38;;;21.26;57.58
71559;BME280;59382;43.852;25.952;2023-07-28T01:07:53;101114.56;;;21.25;57.65
71559;BME280;59382;43.852;25.952;2023-07-28T01:10:31;101112.38;;;21.27;57.75
71559;BME280;59382;43.852;25.952;2023-07-28T01:13:01;101110.47;;;21.43;57.38
71559;BME280;59382;43.852;25.952;2023-07-28T01:15:27;101117.06;;;21.57;57.28
71559;BME280;59382;43.852;25.952;2023-07-28T01:17:54;101112.13;;;21.64;56.83
71559;BME280;59382;43.852;25.952;2023-07-28T01:20:20;101117.63;;;21.69;56.79
71559;BME280;59382;43.852;25.952;2023-07-28T01:28:19;101117.38;;;21.81;56.41
71559;BME280;59382;43.852;25.952;2023-07-28T01:30:45;101109.41;;;21.79;56.12
71559;BME280;59382;43.852;25.952;2023-07-28T01:33:11;101125.63;;;21.81;56.25
71559;BME280;59382;43.852;25.952;2023-07-28T01:35:37;101120.09;;;21.76;55.97
71559;BME280;59382;43.852;25.952;2023-07-28T01:38:06;101117.34;;;21.66;56.37
71559;BME280;59382;43.852;25.952;2023-07-28T01:40:31;101116.25;;;21.72;56.38
71559;BME280;59382;43.852;25.952;2023-07-28T01:42:57;101121.19;;;21.70;56.10
71559;BME280;59382;43.852;25.952;2023-07-28T01:45:23;101117.06;;;21.57;55.70
71559;BME280;59382;43.852;25.952;2023-07-28T01:47:48;101125.00;;;21.49;55.82
71559;BME280;59382;43.852;25.952;2023-07-28T01:50:14;101131.88;;;21.36;55.74
71559;BME280;59382;43.852;25.952;2023-07-28T01:52:39;101137.91;;;21.33;56.28
71559;BME280;59382;43.852;25.952;2023-07-28T01:55:05;101133.25;;;21.33;56.29
71559;BME280;59382;43.852;25.952;2023-07-28T01:57:34;101144.50;;;21.47;56.42
71559;BME280;59382;43.852;25.952;2023-07-28T02:00:01;101140.69;;;21.48;56.12
71559;BME280;59382;43.852;25.952;2023-07-28T02:02:28;101142.59;;;21.43;56.06
71559;BME280;59382;43.852;25.952;2023-07-28T02:04:54;101157.69;;;21.45;55.89
71559;BME280;59382;43.852;25.952;2023-07-28T02:07:19;101159.63;;;21.40;55.93
71559;BME280;59382;43.852;25.952;2023-07-28T02:09:45;101155.75;;;21.41;55.83
71559;BME280;59382;43.852;25.952;2023-07-28T02:12:10;101148.63;;;21.34;55.72
71559;BME280;59382;43.852;25.952;2023-07-28T02:14:36;101159.59;;;21.34;55.35
71559;BME280;59382;43.852;25.952;2023-07-28T02:17:02;101161.72;;;21.17;55.52
71559;BME280;59382;43.852;25.952;2023-07-28T02:19:27;101164.44;;;21.02;55.49
71559;BME280;59382;43.852;25.952;2023-07-28T02:21:52;101165.75;;;20.90;55.80
71559;BME280;59382;43.852;25.952;2023-07-28T02:24:18;101157.72;;;20.73;55.60
71559;BME280;59382;43.852;25.952;2023-07-28T02:26:43;101153.28;;;20.67;56.06
71559;BME280;59382;43.852;25.952;2023-07-28T02:29:09;101153.28;;;20.67;55.78
71559;BME280;59382;43.852;25.952;2023-07-28T02:31:37;101127.47;;;20.53;55.71
71559;BME280;59382;43.852;25.952;2023-07-28T02:34:03;101153.84;;;20.69;55.97
71559;BME280;59382;43.852;25.952;2023-07-28T02:36:28;101176.13;;;20.83;55.84
71559;BME280;59382;43.852;25.952;2023-07-28T02:38:54;101174.22;;;20.88;55.44
71559;BME280;59382;43.852;25.952;2023-07-28T02:41:20;101159.38;;;20.79;55.50
71559;BME280;59382;43.852;25.952;2023-07-28T02:43:45;101164.34;;;20.82;55.26
71559;BME280;59382;43.852;25.952;2023-07-28T02:46:11;101165.94;;;20.73;55.26
71559;BME280;59382;43.852;25.952;2023-07-28T02:48:36;101176.59;;;20.70;55.68
71559;BME280;59382;43.852;25.952;2023-07-28T02:51:01;101163.94;;;20.59;55.94
71559;BME280;59382;43.852;25.952;2023-07-28T02:53:27;101173.59;;;20.66;55.60
71559;BME280;59382;43.852;25.952;2023-07-28T02:55:53;101188.97;;;20.77;55.65
71559;BME280;59382;43.852;25.952;2023-07-28T02:58:19;101191.41;;;20.69;55.43
71559;BME280;59382;43.852;25.952;2023-07-28T03:00:44;101163.53;;;20.35;55.28
71559;BME280;59382;43.852;25.952;2023-07-28T03:03:11;101199.81;;;20.52;55.74
71559;BME280;59382;43.852;25.952;2023-07-28T03:05:37;101201.44;;;20.48;55.53
71559;BME280;59382;43.852;25.952;2023-07-28T03:08:03;101202.28;;;20.49;55.52
71559;BME280;59382;43.852;25.952;2023-07-28T03:10:29;101216.25;;;20.47;55.61
71559;BME280;59382;43.852;25.952;2023-07-28T03:12:55;101199.50;;;20.44;55.71
71559;BME280;59382;43.852;25.952;2023-07-28T03:15:21;101203.03;;;20.39;55.51
71559;BME280;59382;43.852;25.952;2023-07-28T03:17:48;101216.25;;;20.47;55.69
71559;BME280;59382;43.852;25.952;2023-07-28T03:20:13;101218.41;;;20.45;55.65
71559;BME280;59382;43.852;25.952;2023-07-28T03:22:39;101201.03;;;20.25;55.78
71559;BME280;59382;43.852;25.952;2023-07-28T03:25:05;101211.44;;;20.28;55.72
71559;BME280;59382;43.852;25.952;2023-07-28T03:27:31;101207.34;;;20.30;56.22
71559;BME280;59382;43.852;25.952;2023-07-28T03:29:56;101195.84;;;20.33;55.75
71559;BME280;59382;43.852;25.952;2023-07-28T03:32:22;101225.84;;;20.50;55.98
71559;BME280;59382;43.852;25.952;2023-07-28T03:34:47;101200.84;;;20.41;55.43
71559;BME280;59382;43.852;25.952;2023-07-28T03:37:13;101217.91;;;20.48;55.54
71559;BME280;59382;43.852;25.952;2023-07-28T03:39:38;101209.63;;;20.38;55.10
71559;BME280;59382;43.852;25.952;2023-07-28T03:42:04;101221.75;;;20.47;55.54
71559;BME280;59382;43.852;25.952;2023-07-28T03:44:30;101231.41;;;20.60;55.94
71559;BME280;59382;43.852;25.952;2023-07-28T03:46:57;101232.88;;;20.77;55.66
71559;BME280;59382;43.852;25.952;2023-07-28T03:49:22;101225.78;;;20.86;55.30
71559;BME280;59382;43.852;25.952;2023-07-28T03:51:48;101212.59;;;20.78;55.18
71559;BME280;59382;43.852;25.952;2023-07-28T03:54:13;101234.00;;;20.81;55.23
71559;BME280;59382;43.852;25.952;2023-07-28T03:56:39;101226.84;;;20.80;55.34
71559;BME280;59382;43.852;25.952;2023-07-28T03:59:04;101214.78;;;20.76;55.28
71559;BME280;59382;43.852;25.952;2023-07-28T04:01:31;101211.78;;;20.83;55.36
71559;BME280;59382;43.852;25.952;2023-07-28T04:03:56;101222.88;;;20.98;54.97
71559;BME280;59382;43.852;25.952;2023-07-28T04:06:39;101223.91;;;20.92;54.94
71559;BME280;59382;43.852;25.952;2023-07-28T04:09:06;101221.91;;;20.77;55.27
71559;BME280;59382;43.852;25.952;2023-07-28T04:11:32;101216.38;;;20.67;55.45
71559;BME280;59382;43.852;25.952;2023-07-28T04:13:57;101212.59;;;20.78;55.31
71559;BME280;59382;43.852;25.952;2023-07-28T04:16:23;101234.06;;;20.91;55.37
71559;BME280;59382;43.852;25.952;2023-07-28T04:18:48;101216.22;;;20.89;55.39
71559;BME280;59382;43.852;25.952;2023-07-28T04:21:14;101215.72;;;20.97;55.75
71559;BME280;59382;43.852;25.952;2023-07-28T04:23:39;101224.03;;;21.12;55.52
71559;BME280;59382;43.852;25.952;2023-07-28T04:26:06;101222.66;;;21.09;55.49
71559;BME280;59382;43.852;25.952;2023-07-28T04:28:31;101210.00;;;21.03;55.58
71559;BME280;59382;43.852;25.952;2023-07-28T04:30:57;101251.56;;;21.37;55.45
71559;BME280;59382;43.852;25.952;2023-07-28T04:33:23;101246.63;;;21.39;55.18
71559;BME280;59382;43.852;25.952;2023-07-28T04:35:48;101246.06;;;21.32;55.17
71559;BME280;59382;43.852;25.952;2023-07-28T04:38:14;101215.75;;;21.07;55.34
71559;BME280;59382;43.852;25.952;2023-07-28T04:40:39;101245.47;;;21.25;55.74
71559;BME280;59382;43.852;25.952;2023-07-28T04:43:05;101243.03;;;21.28;55.78
71559;BME280;59382;43.852;25.952;2023-07-28T04:45:30;101245.78;;;21.28;55.56
71559;BME280;59382;43.852;25.952;2023-07-28T04:47:56;101253.44;;;21.26;55.43
71559;BME280;59382;43.852;25.952;2023-07-28T04:50:21;101245.22;;;21.21;55.50
71559;BME280;59382;43.852;25.952;2023-07-28T04:52:47;101245.44;;;21.15;55.63
71559;BME280;59382;43.852;25.952;2023-07-28T04:55:12;101251.50;;;21.22;55.87
71559;BME280;59382;43.852;25.952;2023-07-28T04:57:38;101248.50;;;21.28;55.76
71559;BME280;59382;43.852;25.952;2023-07-28T05:00:04;101223.25;;;21.21;55.32
71559;BME280;59382;43.852;25.952;2023-07-28T05:02:31;101259.00;;;21.37;55.38
71559;BME280;59382;43.852;25.952;2023-07-28T05:04:56;101249.09;;;21.35;55.42
71559;BME280;59382;43.852;25.952;2023-07-28T05:07:22;101249.63;;;21.32;55.34
71559;BME280;59382;43.852;25.952;2023-07-28T05:09:47;101236.16;;;21.26;55.06
71559;BME280;59382;43.852;25.952;2023-07-28T05:12:13;101258.19;;;21.41;55.16
71559;BME280;59382;43.852;25.952;2023-07-28T05:14:38;101259.53;;;21.38;55.08
71559;BME280;59382;43.852;25.952;2023-07-28T05:17:04;101250.22;;;21.45;55.15
71559;BME280;59382;43.852;25.952;2023-07-28T05:19:29;101256.84;;;21.54;54.40
71559;BME280;59382;43.852;25.952;2023-07-28T05:21:55;101254.66;;;21.56;54.37
71559;BME280;59382;43.852;25.952;2023-07-28T05:24:21;101271.13;;;21.61;53.95
71559;BME280;59382;43.852;25.952;2023-07-28T05:26:46;101263.44;;;21.53;53.93
71559;BME280;59382;43.852;25.952;2023-07-28T05:29:12;101260.94;;;21.46;53.84
71559;BME280;59382;43.852;25.952;2023-07-28T05:31:37;101259.59;;;21.59;53.97
71559;BME280;59382;43.852;25.952;2023-07-28T05:34:04;101260.19;;;21.71;53.56
71559;BME280;59382;43.852;25.952;2023-07-28T05:36:29;101248.34;;;21.60;53.16
71559;BME280;59382;43.852;25.952;2023-07-28T05:38:55;101249.44;;;21.54;52.92
71559;BME280;59382;43.852;25.952;2023-07-28T05:41:22;101265.09;;;21.59;53.04
71559;BME280;59382;43.852;25.952;2023-07-28T05:43:48;101268.97;;;21.73;53.51
71559;BME280;59382;43.852;25.952;2023-07-28T05:46:13;101270.69;;;21.94;53.04
71559;BME280;59382;43.852;25.952;2023-07-28T05:48:39;101275.38;;;22.13;52.44
71559;BME280;59382;43.852;25.952;2023-07-28T05:51:04;101261.91;;;22.22;52.23
71559;BME280;59382;43.852;25.952;2023-07-28T05:53:30;101254.22;;;22.34;52.11
71559;BME280;59382;43.852;25.952;2023-07-28T05:55:55;101245.94;;;22.49;51.98
71559;BME280;59382;43.852;25.952;2023-07-28T05:58:21;101278.13;;;22.78;51.40
71559;BME280;59382;43.852;25.952;2023-07-28T06:00:47;101265.50;;;22.67;51.02
71559;BME280;59382;43.852;25.952;2023-07-28T06:03:13;101263.84;;;22.61;51.30
71559;BME280;59382;43.852;25.952;2023-07-28T06:05:39;101271.78;;;22.88;51.23
71559;BME280;59382;43.852;25.952;2023-07-28T06:08:08;101284.34;;;23.19;51.12
71559;BME280;59382;43.852;25.952;2023-07-28T06:10:34;101260.66;;;23.33;50.30
71559;BME280;59382;43.852;25.952;2023-07-28T06:13:00;101276.16;;;23.68;50.23
71559;BME280;59382;43.852;25.952;2023-07-28T06:15:26;101270.41;;;24.08;49.90
71559;BME280;59382;43.852;25.952;2023-07-28T06:17:52;101256.81;;;24.50;49.02
71559;BME280;59382;43.852;25.952;2023-07-28T06:20:17;101263.53;;;24.96;48.60
71559;BME280;59382;43.852;25.952;2023-07-28T06:22:43;101264.06;;;25.22;47.69
71559;BME280;59382;43.852;25.952;2023-07-28T06:25:09;101270.41;;;25.46;47.61
71559;BME280;59382;43.852;25.952;2023-07-28T06:27:34;101256.69;;;25.78;47.06
71559;BME280;59382;43.852;25.952;2023-07-28T06:30:00;101271.47;;;26.24;46.18
71559;BME280;59382;43.852;25.952;2023-07-28T06:32:26;101253.16;;;26.60;45.89
71559;BME280;59382;43.852;25.952;2023-07-28T06:34:53;101253.94;;;27.06;44.99
71559;BME280;59382;43.852;25.952;2023-07-28T06:37:19;101250.28;;;27.24;44.04
71559;BME280;59382;43.852;25.952;2023-07-28T06:39:45;101266.91;;;27.38;43.68
71559;BME280;59382;43.852;25.952;2023-07-28T06:42:10;101274.06;;;27.52;43.83
71559;BME280;59382;43.852;25.952;2023-07-28T06:44:37;101263.84;;;27.75;43.19
71559;BME280;59382;43.852;25.952;2023-07-28T06:47:03;101259.56;;;28.04;42.84
71559;BME280;59382;43.852;25.952;2023-07-28T06:49:28;101257.66;;;28.35;42.44
71559;BME280;59382;43.852;25.952;2023-07-28T06:51:54;101253.06;;;28.53;41.59
71559;BME280;59382;43.852;25.952;2023-07-28T06:54:20;101261.19;;;28.72;41.34
71559;BME280;59382;43.852;25.952;2023-07-28T06:56:45;101227.03;;;28.71;41.16
71559;BME280;59382;43.852;25.952;2023-07-28T06:59:11;101254.78;;;29.02;40.82
71559;BME280;59382;43.852;25.952;2023-07-28T07:01:37;101258.16;;;29.21;40.45
71559;BME280;59382;43.852;25.952;2023-07-28T07:04:03;101251.78;;;29.29;39.98
71559;BME280;59382;43.852;25.952;2023-07-28T07:06:30;101237.63;;;29.39;40.31
71559;BME280;59382;43.852;25.952;2023-07-28T07:08:58;101254.50;;;29.59;39.54
71559;BME280;59382;43.852;25.952;2023-07-28T07:11:24;101245.34;;;29.67;39.07
71559;BME280;59382;43.852;25.952;2023-07-28T07:13:49;101258.28;;;29.72;39.27
71559;BME280;59382;43.852;25.952;2023-07-28T07:16:18;101259.22;;;29.59;39.25
71559;BME280;59382;43.852;25.952;2023-07-28T07:18:44;101251.69;;;29.51;39.57
71559;BME280;59382;43.852;25.952;2023-07-28T07:21:10;101267.47;;;29.64;39.19
71559;BME280;59382;43.852;25.952;2023-07-28T07:23:36;101256.16;;;29.69;38.66
71559;BME280;59382;43.852;25.952;2023-07-28T07:26:02;101252.91;;;29.75;38.32
71559;BME280;59382;43.852;25.952;2023-07-28T07:28:28;101244.56;;;29.67;38.09
71559;BME280;59382;43.852;25.952;2023-07-28T07:30:54;101251.56;;;29.64;38.07
71559;BME280;59382;43.852;25.952;2023-07-28T07:33:27;101264.78;;;29.59;37.77
71559;BME280;59382;43.852;25.952;2023-07-28T07:35:53;101268.47;;;29.29;37.69
71559;BME280;59382;43.852;25.952;2023-07-28T07:38:19;101255.41;;;28.99;38.45
71559;BME280;59382;43.852;25.952;2023-07-28T07:40:47;101253.44;;;28.91;38.40
71559;BME280;59382;43.852;25.952;2023-07-28T07:43:13;101253.72;;;28.81;38.42
71559;BME280;59382;43.852;25.952;2023-07-28T07:45:45;101269.63;;;28.97;38.67
71559;BME280;59382;43.852;25.952;2023-07-28T07:48:13;101260.09;;;29.12;38.22
71559;BME280;59382;43.852;25.952;2023-07-28T07:50:38;101257.84;;;29.22;37.97
71559;BME280;59382;43.852;25.952;2023-07-28T07:53:04;101231.28;;;29.08;37.31
71559;BME280;59382;43.852;25.952;2023-07-28T07:55:30;101261.09;;;29.16;37.19
71559;BME280;59382;43.852;25.952;2023-07-28T07:57:57;101241.03;;;28.97;37.87
71559;BME280;59382;43.852;25.952;2023-07-28T08:00:23;101234.31;;;28.89;37.57
71559;BME280;59382;43.852;25.952;2023-07-28T08:02:49;101235.69;;;28.70;38.02
71559;BME280;59382;43.852;25.952;2023-07-28T08:05:15;101253.72;;;28.81;37.97
71559;BME280;59382;43.852;25.952;2023-07-28T08:07:41;101256.44;;;29.03;37.79
71559;BME280;59382;43.852;25.952;2023-07-28T08:10:07;101252.63;;;29.29;37.24
71559;BME280;59382;43.852;25.952;2023-07-28T08:12:33;101237.13;;;29.45;36.80
71559;BME280;59382;43.852;25.952;2023-07-28T08:14:59;101239.97;;;29.71;36.58
71559;BME280;59382;43.852;25.952;2023-07-28T08:17:28;101234.06;;;29.81;36.25
71559;BME280;59382;43.852;25.952;2023-07-28T08:19:54;101227.22;;;29.87;35.75
71559;BME280;59382;43.852;25.952;2023-07-28T08:22:19;101237.69;;;29.73;35.60
71559;BME280;59382;43.852;25.952;2023-07-28T08:24:45;101242.53;;;29.59;35.81
71559;BME280;59382;43.852;25.952;2023-07-28T08:27:10;101234.34;;;29.54;35.82
71559;BME280;59382;43.852;25.952;2023-07-28T08:29:36;101227.81;;;29.58;36.06
71559;BME280;59382;43.852;25.952;2023-07-28T08:32:01;101236.53;;;29.65;35.51
71559;BME280;59382;43.852;25.952;2023-07-28T08:34:27;101244.50;;;29.50;35.58
71559;BME280;59382;43.852;25.952;2023-07-28T08:36:53;101242.69;;;29.45;35.29
71559;BME280;59382;43.852;25.952;2023-07-28T08:39:18;101237.94;;;29.46;35.44
71559;BME280;59382;43.852;25.952;2023-07-28T08:41:44;101233.03;;;29.34;34.93
71559;BME280;59382;43.852;25.952;2023-07-28T08:44:10;101222.88;;;29.30;35.07
71559;BME280;59382;43.852;25.952;2023-07-28T08:46:35;101223.56;;;29.61;34.85
71559;BME280;59382;43.852;25.952;2023-07-28T08:49:02;101217.56;;;29.76;34.56
71559;BME280;59382;43.852;25.952;2023-07-28T08:51:27;101228.03;;;29.96;34.24
71559;BME280;59382;43.852;25.952;2023-07-28T08:53:53;101224.25;;;30.09;34.25
71559;BME280;59382;43.852;25.952;2023-07-28T08:56:20;101201.00;;;30.05;33.58
71559;BME280;59382;43.852;25.952;2023-07-28T08:58:45;101220.47;;;30.13;33.76
71559;BME280;59382;43.852;25.952;2023-07-28T09:01:12;101217.41;;;29.98;33.62
71559;BME280;59382;43.852;25.952;2023-07-28T09:03:40;101220.66;;;30.00;33.83
71559;BME280;59382;43.852;25.952;2023-07-28T09:06:07;101216.75;;;30.01;33.94
71559;BME280;59382;43.852;25.952;2023-07-28T09:08:36;101227.34;;;30.07;33.89
71559;BME280;59382;43.852;25.952;2023-07-28T09:11:04;101221.31;;;30.05;32.63
71559;BME280;59382;43.852;25.952;2023-07-28T09:13:39;101203.16;;;29.82;32.23
71559;BME280;59382;43.852;25.952;2023-07-28T09:16:19;101218.03;;;29.78;32.73
71559;BME280;59382;43.852;25.952;2023-07-28T09:18:45;101212.81;;;29.85;32.67
71559;BME280;59382;43.852;25.952;2023-07-28T09:21:19;101202.16;;;29.87;31.76
71559;BME280;59382;43.852;25.952;2023-07-28T09:23:47;101201.34;;;29.78;32.32
71559;BME280;59382;43.852;25.952;2023-07-28T09:26:14;101197.09;;;29.72;32.44
71559;BME280;59382;43.852;25.952;2023-07-28T09:28:40;101190.56;;;29.85;32.15
71559;BME280;59382;43.852;25.952;2023-07-28T09:31:07;101204.78;;;30.00;32.06
71559;BME280;59382;43.852;25.952;2023-07-28T09:33:35;101199.22;;;30.00;31.13
71559;BME280;59382;43.852;25.952;2023-07-28T09:36:12;101195.13;;;29.98;31.25
71559;BME280;59382;43.852;25.952;2023-07-28T09:38:39;101198.72;;;30.07;31.63
71559;BME280;59382;43.852;25.952;2023-07-28T09:41:08;101195.59;;;30.17;31.63
71559;BME280;59382;43.852;25.952;2023-07-28T09:43:39;101192.19;;;30.20;30.92
71559;BME280;59382;43.852;25.952;2023-07-28T09:46:08;101186.75;;;30.15;31.31
71559;BME280;59382;43.852;25.952;2023-07-28T09:48:34;101181.53;;;30.22;31.28
71559;BME280;59382;43.852;25.952;2023-07-28T09:51:14;101184.91;;;30.36;30.84
71559;BME280;59382;43.852;25.952;2023-07-28T09:53:44;101174.75;;;30.40;30.47
71559;BME280;59382;43.852;25.952;2023-07-28T09:56:14;101187.53;;;30.41;30.19
71559;BME280;59382;43.852;25.952;2023-07-28T09:58:47;101179.41;;;30.19;29.63
71559;BME280;59382;43.852;25.952;2023-07-28T10:01:14;101174.81;;;30.06;29.98
71559;BME280;59382;43.852;25.952;2023-07-28T10:03:40;101175.13;;;30.13;29.82
71559;BME280;59382;43.852;25.952;2023-07-28T10:06:06;101172.69;;;30.11;29.18
71559;BME280;59382;43.852;25.952;2023-07-28T10:08:32;101176.47;;;30.07;29.26
71559;BME280;59382;43.852;25.952;2023-07-28T10:10:58;101183.81;;;30.03;29.06
71559;BME280;59382;43.852;25.952;2023-07-28T10:13:24;101182.34;;;29.97;28.97
71559;BME280;59382;43.852;25.952;2023-07-28T10:15:52;101180.41;;;29.89;29.29
71559;BME280;59382;43.852;25.952;2023-07-28T10:18:20;101161.59;;;29.77;29.48
71559;BME280;59382;43.852;25.952;2023-07-28T10:20:46;101173.38;;;29.83;29.80
71559;BME280;59382;43.852;25.952;2023-07-28T10:23:20;101166.50;;;29.89;29.58
71559;BME280;59382;43.852;25.952;2023-07-28T10:25:47;101168.09;;;29.98;29.42
71559;BME280;59382;43.852;25.952;2023-07-28T10:28:35;101148.50;;;29.78;28.75
71559;BME280;59382;43.852;25.952;2023-07-28T10:31:05;101161.75;;;29.81;29.04
71559;BME280;59382;43.852;25.952;2023-07-28T10:33:43;101153.59;;;29.76;29.74
71559;BME280;59382;43.852;25.952;2023-07-28T10:38:43;101150.59;;;29.98;29.68
71559;BME280;59382;43.852;25.952;2023-07-28T10:41:13;101153.53;;;29.93;28.49
71559;BME280;59382;43.852;25.952;2023-07-28T10:43:43;101146.72;;;29.82;28.82
71559;BME280;59382;43.852;25.952;2023-07-28T10:46:10;101141.78;;;29.62;28.49
71559;BME280;59382;43.852;25.952;2023-07-28T10:48:42;101138.16;;;29.53;28.40
71559;BME280;59382;43.852;25.952;2023-07-28T10:51:08;101130.97;;;29.52;29.00
71559;BME280;59382;43.852;25.952;2023-07-28T10:53:33;101130.66;;;29.53;29.24
71559;BME280;59382;43.852;25.952;2023-07-28T10:56:02;101124.59;;;29.51;28.50
71559;BME280;59382;43.852;25.952;2023-07-28T10:58:28;101120.50;;;29.49;28.64
71559;BME280;59382;43.852;25.952;2023-07-28T11:00:57;101120.81;;;29.56;28.58
71559;BME280;59382;43.852;25.952;2023-07-28T11:03:23;101120.31;;;29.54;28.24
71559;BME280;59382;43.852;25.952;2023-07-28T11:05:49;101100.03;;;29.45;28.31
71559;BME280;59382;43.852;25.952;2023-07-28T11:08:15;101108.56;;;29.48;28.38
71559;BME280;59382;43.852;25.952;2023-07-28T11:10:41;101099.56;;;29.43;29.02
71559;BME280;59382;43.852;25.952;2023-07-28T11:13:07;101114.75;;;29.54;29.18
71559;BME280;59382;43.852;25.952;2023-07-28T11:15:33;101111.00;;;29.50;28.73
71559;BME280;59382;43.852;25.952;2023-07-28T11:17:59;101106.09;;;29.47;29.13
71559;BME280;59382;43.852;25.952;2023-07-28T11:20:28;101081.75;;;29.35;28.58
71559;BME280;59382;43.852;25.952;2023-07-28T11:23:04;101090.41;;;29.34;28.88
71559;BME280;59382;43.852;25.952;2023-07-28T11:25:31;101078.47;;;29.33;29.18
71559;BME280;59382;43.852;25.952;2023-07-28T11:28:01;101078.00;;;29.40;29.41
71559;BME280;59382;43.852;25.952;2023-07-28T11:30:47;101088.44;;;29.43;28.75
71559;BME280;59382;43.852;25.952;2023-07-28T11:33:21;101087.47;;;29.39;29.30
71559;BME280;59382;43.852;25.952;2023-07-28T11:35:50;101079.16;;;29.39;29.15
71559;BME280;59382;43.852;25.952;2023-07-28T11:38:16;101078.97;;;29.44;29.34
71559;BME280;59382;43.852;25.952;2023-07-28T11:40:44;101052.47;;;29.29;29.53
71559;BME280;59382;43.852;25.952;2023-07-28T11:43:11;101081.41;;;29.45;29.20
71559;BME280;59382;43.852;25.952;2023-07-28T11:45:48;101083.53;;;29.40;28.73
71559;BME280;59382;43.852;25.952;2023-07-28T11:48:14;101068.50;;;29.24;29.41
71559;BME280;59382;43.852;25.952;2023-07-28T11:50:41;101056.06;;;29.21;29.74
71559;BME280;59382;43.852;25.952;2023-07-28T11:53:09;101060.00;;;29.20;29.48
71559;BME280;59382;43.852;25.952;2023-07-28T11:55:35;101068.50;;;29.24;29.08
71559;BME280;59382;43.852;25.952;2023-07-28T11:58:02;101061.16;;;29.19;29.38
71559;BME280;59382;43.852;25.952;2023-07-28T12:00:31;101045.59;;;29.10;29.54
71559;BME280;59382;43.852;25.952;2023-07-28T12:03:01;101040.88;;;29.10;29.50
71559;BME280;59382;43.852;25.952;2023-07-28T12:05:27;101063.59;;;29.21;29.54
71559;BME280;59382;43.852;25.952;2023-07-28T12:07:53;101049.34;;;29.14;29.59
71559;BME280;59382;43.852;25.952;2023-07-28T12:10:19;101056.56;;;29.23;29.68
71559;BME280;59382;43.852;25.952;2023-07-28T12:12:45;101057.41;;;29.24;29.58
71559;BME280;59382;43.852;25.952;2023-07-28T12:15:25;101048.06;;;29.20;28.68
71559;BME280;59382;43.852;25.952;2023-07-28T12:18:10;101057.41;;;29.24;29.03
71559;BME280;59382;43.852;25.952;2023-07-28T12:20:42;101041.03;;;29.14;29.56
71559;BME280;59382;43.852;25.952;2023-07-28T12:23:11;101043.66;;;29.19;29.94
71559;BME280;59382;43.852;25.952;2023-07-28T12:25:37;101046.28;;;29.24;29.95
71559;BME280;59382;43.852;25.952;2023-07-28T12:28:03;101035.16;;;29.24;30.05
71559;BME280;59382;43.852;25.952;2023-07-28T12:30:29;101025.00;;;29.28;29.98
71559;BME280;59382;43.852;25.952;2023-07-28T12:32:55;101035.78;;;29.38;29.66
71559;BME280;59382;43.852;25.952;2023-07-28T12:35:21;100999.34;;;29.14;29.28
71559;BME280;59382;43.852;25.952;2023-07-28T12:37:51;101020.91;;;29.34;29.36
71559;BME280;59382;43.852;25.952;2023-07-28T12:40:18;101001.47;;;29.17;30.10
71559;BME280;59382;43.852;25.952;2023-07-28T12:42:45;101028.59;;;29.37;30.18
71559;BME280;59382;43.852;25.952;2023-07-28T12:45:12;101020.41;;;29.32;29.45
71559;BME280;59382;43.852;25.952;2023-07-28T12:47:38;101022.41;;;29.31;29.92